METAR Data
IDs: Format: Raw Decoded Include TAF

Data at: 1732 UTC 16 Oct 2021

KDUX 161715Z AUTO 22017KT 10SM CLR 15/M01 A3043 RMK AO2 T01491006
KDUX 161655Z AUTO 22015G22KT 10SM CLR 15/M01 A3043 RMK AO2 T01461009
KDUX 161635Z AUTO 22017G21KT 10SM CLR 14/M01 A3043 RMK AO2 T01441011
KDUX 161615Z AUTO 22017KT 10SM CLR 14/M01 A3043 RMK AO2 T01381014
KDUX 161555Z AUTO 22017KT 10SM CLR 13/M01 A3043 RMK AO2 T01301011
KDUX 161535Z AUTO 21018KT 10SM CLR 13/M01 A3043 RMK AO2 T01251011
KDUX 161515Z AUTO 21014KT 10SM CLR 11/M01 A3044 RMK AO2 T01121006
KDUX 161455Z AUTO 22013KT 10SM CLR 10/M01 A3044 RMK AO2 T01021008
KDUX 161435Z AUTO 22011KT 10SM CLR 09/M01 A3044 RMK AO2 T00891010
KDUX 161415Z AUTO 22009KT 10SM CLR 08/M01 A3043 RMK AO2 T00761006
KDUX 161355Z AUTO 22007KT 10SM CLR 05/M01 A3043 RMK AO2 T00481014
KDUX 161335Z AUTO 22008KT 10SM CLR 04/M02 A3042 RMK AO2 T00381020
KDUX 161315Z AUTO 22008KT 10SM CLR 03/M02 A3041 RMK AO2 T00331021
KDUX 161255Z AUTO 23009KT 10SM CLR 02/M02 A3041 RMK AO2 T00171022
KDUX 161235Z AUTO 23009KT 10SM CLR 02/M02 A3041 RMK AO2 T00191023
KDUX 161215Z AUTO 24008KT 10SM CLR 01/M02 A3040 RMK AO2 T00121025
KDUX 161155Z AUTO 22009KT 10SM CLR 02/M03 A3040 RMK AO2 T00151029 10043 20010
KDUX 161135Z AUTO 22006KT 10SM CLR 02/M03 A3040 RMK AO2 T00221026
KDUX 161115Z AUTO 22008KT 10SM CLR 02/M03 A3039 RMK AO2 T00201027
KDUX 161055Z AUTO 23007KT 10SM CLR 01/M03 A3039 RMK AO2 T00111030
KDUX 161035Z AUTO 22008KT 10SM CLR 02/M03 A3039 RMK AO2 T00151033
KDUX 161015Z AUTO 22006KT 10SM CLR 02/M03 A3038 RMK AO2 T00241032
KDUX 160955Z AUTO 21008KT 10SM CLR 01/M03 A3038 RMK AO2 T00121035
KDUX 160935Z AUTO 21009KT 10SM CLR 01/M03 A3038 RMK AO2 T00141033
KDUX 160915Z AUTO 20009KT 10SM CLR 01/M03 A3038 RMK AO2 T00141035
KDUX 160855Z AUTO 21008KT 10SM CLR 03/M03 A3038 RMK AO2 T00261033
KDUX 160835Z AUTO 21006KT 10SM CLR 03/M03 A3038 RMK AO2 T00291031
KDUX 160815Z AUTO 22007KT 10SM CLR 03/M03 A3039 RMK AO2 T00261030
KDUX 160755Z AUTO 22008KT 10SM CLR 03/M03 A3039 RMK AO2 T00271030
KDUX 160735Z AUTO 22009KT 10SM CLR 03/M03 A3039 RMK AO2 T00301032
KDUX 160715Z AUTO 21009KT 10SM CLR 02/M03 A3038 RMK AO2 T00181034
KDUX 160655Z AUTO 19004KT 10SM CLR 03/M04 A3038 RMK AO2 T00271036
KDUX 160635Z AUTO 17003KT 10SM CLR 03/M04 A3037 RMK AO2 T00321036
KDUX 160615Z AUTO 16003KT 10SM CLR 04/M04 A3037 RMK AO2 T00351037
KDUX 160555Z AUTO 18004KT 10SM CLR 06/M05 A3037 RMK AO2 T00581049 10123 20058 401550018
KDUX 160535Z AUTO 07003KT 10SM CLR 07/M05 A3037 RMK AO2 T00701048
KDUX 160515Z AUTO 07004KT 10SM CLR 08/M05 A3036 RMK AO2 T00751048
KDUX 160455Z AUTO 00000KT 10SM CLR 07/M04 A3037 RMK AO2 T00651043
KDUX 160435Z AUTO 00000KT 10SM CLR 07/M04 A3037 RMK AO2 T00671043
KDUX 160415Z AUTO 00000KT 10SM CLR 07/M04 A3037 RMK AO2 T00661043
KDUX 160355Z AUTO 00000KT 10SM CLR 07/M04 A3036 RMK AO2 T00651042
KDUX 160335Z AUTO 00000KT 10SM CLR 08/M04 A3036 RMK AO2 T00771043
KDUX 160315Z AUTO 05003KT 7SM CLR 07/M04 A3035 RMK AO2 T00731042
KDUX 160255Z AUTO 05003KT 10SM CLR 08/M04 A3035 RMK AO2 T00751044
KDUX 160235Z AUTO 05003KT 10SM CLR 08/M05 A3034 RMK AO2 T00811047
KDUX 160215Z AUTO 03004KT 10SM CLR 10/M05 A3034 RMK AO2 T01001046
KDUX 160155Z AUTO 04005KT 10SM CLR 09/M04 A3033 RMK AO2 T00921042
KDUX 160135Z AUTO 04004KT 10SM CLR 09/M04 A3032 RMK AO2 T00941037
KDUX 160115Z AUTO 03003KT 10SM CLR 10/M03 A3032 RMK AO2 T01021033
KDUX 160055Z AUTO 01004KT 10SM CLR 10/M03 A3032 RMK AO2 T01041030
KDUX 160035Z AUTO 01003KT 10SM CLR 11/M03 A3031 RMK AO2 T01061027
KDUX 160015Z AUTO 35003KT 10SM CLR 11/M03 A3031 RMK AO2 T01111028
KDUX 152355Z AUTO 36005KT 10SM CLR 13/M03 A3031 RMK AO2 T01261030 10155 20125
KDUX 152335Z AUTO 36009KT 10SM CLR 14/M03 A3030 RMK AO2 T01361031
KDUX 152315Z AUTO 33008KT 10SM CLR 14/M04 A3030 RMK AO2 T01441038
KDUX 152255Z AUTO 33007KT 10SM CLR 15/M03 A3030 RMK AO2 T01451034
KDUX 152235Z AUTO 31008KT 10SM SCT070 15/M03 A3030 RMK AO2 T01461035
KDUX 152215Z AUTO 34008KT 10SM SCT070 15/M03 A3030 RMK AO2 T01511032
KDUX 152155Z AUTO 32007KT 10SM SCT070 15/M03 A3030 RMK AO2 T01471030
KDUX 152135Z AUTO 35015G20KT 10SM SCT070 16/M02 A3029 RMK AO2 T01551023
KDUX 152115Z AUTO 32009G17KT 10SM SCT065 SCT080 15/M03 A3029 RMK AO2 T01481029
KDUX 152055Z AUTO 33011G18KT 10SM SCT065 SCT080 15/M02 A3029 RMK AO2 T01481023
KDUX 152035Z AUTO 30009G18KT 10SM SCT065 15/M03 A3028 RMK AO2 T01481027
KDUX 152015Z AUTO 35011G15KT 10SM SCT065 15/M02 A3028 RMK AO2 T01501016
KDUX 151955Z AUTO 36012G22KT 10SM CLR 14/M02 A3028 RMK AO2 T01441017
KDUX 151935Z AUTO 33010G15KT 10SM SCT055 14/M01 A3029 RMK AO2 T01401015
KDUX 151915Z AUTO 32012G22KT 10SM SCT055 14/M02 A3029 RMK AO2 T01401016
KDUX 151855Z AUTO 34010G17KT 10SM CLR 14/M01 A3030 RMK AO2 T01421015
KDUX 151835Z AUTO 33011G22KT 10SM CLR 13/M02 A3030 RMK AO2 T01341019
KDUX 151815Z AUTO 35012G20KT 10SM CLR 13/M01 A3031 RMK AO2 T01321014
KDUX 151755Z AUTO 36011G21KT 10SM CLR 13/M01 A3031 RMK AO2 T01251010 10127 20018
KDUX 151735Z AUTO 35015G18KT 10SM SCT047 13/00 A3031 RMK AO2 T01261004
KDUX 151715Z AUTO 35012G20KT 10SM SCT043 12/00 A3031 RMK AO2 T01220000
KDUX 151655Z AUTO 36011G19KT 10SM CLR 11/00 A3031 RMK AO2 T01120000
KDUX 151635Z AUTO 35013G18KT 10SM CLR 11/01 A3031 RMK AO2 T01070007
KDUX 151615Z AUTO 36010G17KT 10SM CLR 10/01 A3031 RMK AO2 T01020014
KDUX 151555Z AUTO 34012KT 10SM CLR 09/01 A3030 RMK AO2 T00920014
KDUX 151535Z AUTO 34012KT 10SM CLR 09/02 A3030 RMK AO2 T00850020
KDUX 151515Z AUTO 33013KT 10SM CLR 08/02 A3029 RMK AO2 T00760020
KDUX 151455Z AUTO 33013KT 10SM CLR 07/02 A3028 RMK AO2 T00660020
KDUX 151435Z AUTO 33012KT 10SM CLR 06/02 A3027 RMK AO2 T00560017
KDUX 151415Z AUTO 33012KT 10SM CLR 05/02 A3025 RMK AO2 T00470015
KDUX 151355Z AUTO 34009KT 10SM CLR 04/02 A3024 RMK AO2 T00400015
KDUX 151335Z AUTO 34009KT 10SM CLR 03/01 A3022 RMK AO2 T00330011
KDUX 151315Z AUTO 33010KT 10SM CLR 03/01 A3022 RMK AO2 T00300010
KDUX 151255Z AUTO 32009KT 10SM SCT070 02/00 A3021 RMK AO2 T00220000
KDUX 151235Z AUTO 33010KT 10SM CLR 02/00 A3021 RMK AO2 T00181003
KDUX 151215Z AUTO 33011KT 10SM CLR 02/00 A3020 RMK AO2 T00201005
KDUX 151155Z AUTO 33013KT 10SM CLR 02/00 A3019 RMK AO2 T00211005 10050 20021
KDUX 151135Z AUTO 33012KT 10SM CLR 02/00 A3018 RMK AO2 T00231005
KDUX 151115Z AUTO 33013KT 10SM CLR 03/00 A3016 RMK AO2 T00251005
KDUX 151055Z AUTO 32011KT 10SM CLR 03/00 A3015 RMK AO2 T00261005
KDUX 151035Z AUTO 33014KT 10SM CLR 03/00 A3014 RMK AO2 T00301005
KDUX 151015Z AUTO 33013KT 10SM CLR 03/00 A3012 RMK AO2 T00301001
KDUX 150955Z AUTO 33010KT 10SM CLR 03/00 A3012 RMK AO2 T00280000
KDUX 150935Z AUTO 32009KT 10SM CLR 03/00 A3011 RMK AO2 T00320001
KDUX 150915Z AUTO 32009KT 10SM SCT110 04/00 A3010 RMK AO2 T00380002
KDUX 150855Z AUTO 34010KT 10SM SCT110 04/01 A3010 RMK AO2 T00430010
KDUX 150835Z AUTO 33011KT 10SM OVC110 05/02 A3009 RMK AO2 T00450016
KDUX 150815Z AUTO 33009KT 10SM BKN120 04/02 A3009 RMK AO2 T00430020
KDUX 150755Z AUTO 33009KT 10SM BKN120 05/02 A3008 RMK AO2 T00450021
KDUX 150735Z AUTO 34009KT 10SM BKN120 05/02 A3007 RMK AO2 T00450022
KDUX 150715Z AUTO 36007KT 10SM BKN120 05/03 A3006 RMK AO2 T00470025
KDUX 150655Z AUTO 35008KT 10SM SCT120 05/03 A3006 RMK AO2 T00470025
KDUX 150635Z AUTO 35008KT 10SM CLR 04/02 A3006 RMK AO2 T00400019
KDUX 150615Z AUTO 33005KT 10SM CLR 05/02 A3006 RMK AO2 T00450021
KDUX 150555Z AUTO 34005KT 10SM SCT120 05/02 A3005 RMK AO2 T00500020 10141 20043 401800022
KDUX 150535Z AUTO 36007KT 10SM SCT120 05/02 A3004 RMK AO2 T00450016